Attica Junction, Ohio
Current Conditions -  °F | °C
As of 8:52 PM on Monday 24 Nov 2014 (Local Time) from KMFD Reporting Station
Overcast Overcast  
Wind Chill: 28°   Ceiling: 3500
Heat Index: 39°   Visibility: 10mi
Dew Point: 28°   Wind: 26mph
Humidity: 65%   Direction: 230°SW
Pressure: 29.76"   Gusts: 41mph
Location:  41.0654°N, 82.876°W
Report Text: KMFD 250152Z 23023G36KT 10SM BKN035 OVC043 04/M02 A2976 RMK AO2 PK WND 23039/0106 SLP079 T00391022
Loading
Personal Weather Stations






























Interactive Weather Map New forecast layout! Learn more

10-Day Weather Forecast

Advertisements
Track Severe Weather on mobile